Pagrindinis puslapis
METAR-TAF:

METAR-TAF

Oro uostai :

Nadžranas, Saudo Arabija

platuma: 17-37N, ilguma: 044-25E, Aukštis: 1212 m

Dabartinis oras

Ataskaita buvo paskelbta 1 valandą ir 3 minutes, ne 10:00 UTC
Vėjas 4 kt iš Šiaurės Rytų
Temperatūra 30°C
Drėgmė 13%
Slėgis 1017 hPa
Matomumas 10 km arba daugiau
nėra debesų žemiau 1500 m ir nėra kamuolinių lietaus debesų

METAR: OENG 251000Z 05004KT CAVOK 30/M01 Q1017 NOSIG

Laikas: 14:03 (11:03 UTC)

Prognozė

Ataskaita buvo paskelbta 12 valandos ir 3 minutes, ne 23:00 UTC
Prognozė galioja nuo 25 metu 00 UTC su 26 metu 06 UTC
Vėjas 3 kt nuo kintamojo kryptimis
Matomumas 10 km arba daugiau
nėra debesų žemiau 1500 m ir nėra kamuolinių lietaus debesų
Tapsmas
nuo 25 metu 06 UTC su 25 metu 08 UTC
Vėjas 12 kt iš Pietryčių

TAF: OENG 242300Z 2500/2606 VRB03KT CAVOK BECMG 2506/2508 14012KT

Orai ataskaitas ir orų prognozės (METAR, TAF).

turimą stotys yra geltonos ir raudonos taškus žemėlapyje.

Perkelti pele per norėdami pamatyti stoties vardą.

Tada spustelėkite, norėdami matyti oro stebėjimo ir prognozės.

Norėdami pakeisti žemėlapį: spustelėkite ant žalios mygtukų su juodo kryžiaus žemyn,; žalią mygtuką su brūkšneliu, jei norite nutolinti; arba žalių rodyklių gretimoms žemėlapius.


METAR-TAF: